sensor_id;sensor_type;location;lat;lon;timestamp;P1;durP1;ratioP1;P2;durP2;ratioP2
49416;SDS011;35290;39.550;8.786;2022-08-21T00:02:15;15.38;;;3.08;;
49416;SDS011;35290;39.550;8.786;2022-08-21T00:04:43;16.80;;;3.05;;
49416;SDS011;35290;39.550;8.786;2022-08-21T00:07:09;17.35;;;3.15;;
49416;SDS011;35290;39.550;8.786;2022-08-21T00:09:34;12.88;;;2.97;;
49416;SDS011;35290;39.550;8.786;2022-08-21T00:12:00;10.75;;;2.80;;
49416;SDS011;35290;39.550;8.786;2022-08-21T00:14:25;12.57;;;2.88;;
49416;SDS011;35290;39.550;8.786;2022-08-21T00:16:51;14.00;;;3.40;;
49416;SDS011;35290;39.550;8.786;2022-08-21T00:19:16;11.75;;;2.88;;
49416;SDS011;35290;39.550;8.786;2022-08-21T00:21:42;13.63;;;2.42;;
49416;SDS011;35290;39.550;8.786;2022-08-21T00:24:07;22.40;;;3.72;;
49416;SDS011;35290;39.550;8.786;2022-08-21T00:26:36;17.77;;;2.70;;
49416;SDS011;35290;39.550;8.786;2022-08-21T00:29:02;16.77;;;2.95;;
49416;SDS011;35290;39.550;8.786;2022-08-21T00:31:28;15.20;;;2.58;;
49416;SDS011;35290;39.550;8.786;2022-08-21T00:33:53;12.35;;;2.30;;
49416;SDS011;35290;39.550;8.786;2022-08-21T00:36:19;11.82;;;2.63;;
49416;SDS011;35290;39.550;8.786;2022-08-21T00:38:44;16.85;;;2.53;;
49416;SDS011;35290;39.550;8.786;2022-08-21T00:41:10;13.85;;;2.70;;
49416;SDS011;35290;39.550;8.786;2022-08-21T00:43:37;12.80;;;2.40;;
49416;SDS011;35290;39.550;8.786;2022-08-21T00:46:03;12.38;;;2.15;;
49416;SDS011;35290;39.550;8.786;2022-08-21T00:48:30;12.55;;;2.40;;
49416;SDS011;35290;39.550;8.786;2022-08-21T00:50:58;13.40;;;2.13;;
49416;SDS011;35290;39.550;8.786;2022-08-21T00:53:35;8.85;;;2.30;;
49416;SDS011;35290;39.550;8.786;2022-08-21T00:56:03;10.98;;;2.17;;
49416;SDS011;35290;39.550;8.786;2022-08-21T00:58:30;16.05;;;2.88;;
49416;SDS011;35290;39.550;8.786;2022-08-21T01:00:57;13.52;;;2.50;;
49416;SDS011;35290;39.550;8.786;2022-08-21T01:03:24;13.10;;;2.50;;
49416;SDS011;35290;39.550;8.786;2022-08-21T01:05:50;12.88;;;2.30;;
49416;SDS011;35290;39.550;8.786;2022-08-21T01:08:17;12.70;;;2.40;;
49416;SDS011;35290;39.550;8.786;2022-08-21T01:10:43;9.95;;;2.30;;
49416;SDS011;35290;39.550;8.786;2022-08-21T01:13:10;8.23;;;1.90;;
49416;SDS011;35290;39.550;8.786;2022-08-21T01:15:38;12.70;;;2.42;;
49416;SDS011;35290;39.550;8.786;2022-08-21T01:18:07;17.00;;;2.78;;
49416;SDS011;35290;39.550;8.786;2022-08-21T01:20:34;11.38;;;2.65;;
49416;SDS011;35290;39.550;8.786;2022-08-21T01:23:00;14.27;;;2.55;;
49416;SDS011;35290;39.550;8.786;2022-08-21T01:25:27;12.63;;;2.78;;
49416;SDS011;35290;39.550;8.786;2022-08-21T01:27:52;13.63;;;2.40;;
49416;SDS011;35290;39.550;8.786;2022-08-21T01:30:20;10.45;;;2.10;;
49416;SDS011;35290;39.550;8.786;2022-08-21T01:32:49;13.35;;;2.75;;
49416;SDS011;35290;39.550;8.786;2022-08-21T01:35:17;13.95;;;2.05;;
49416;SDS011;35290;39.550;8.786;2022-08-21T01:37:44;11.57;;;2.00;;
49416;SDS011;35290;39.550;8.786;2022-08-21T01:40:10;12.63;;;2.28;;
49416;SDS011;35290;39.550;8.786;2022-08-21T01:42:37;10.40;;;2.20;;
49416;SDS011;35290;39.550;8.786;2022-08-21T01:45:03;14.15;;;2.22;;
49416;SDS011;35290;39.550;8.786;2022-08-21T01:47:30;12.27;;;1.85;;
49416;SDS011;35290;39.550;8.786;2022-08-21T01:49:56;14.45;;;2.03;;
49416;SDS011;35290;39.550;8.786;2022-08-21T01:52:21;11.60;;;2.50;;
49416;SDS011;35290;39.550;8.786;2022-08-21T01:54:47;11.63;;;2.58;;
49416;SDS011;35290;39.550;8.786;2022-08-21T01:57:13;15.48;;;2.25;;
49416;SDS011;35290;39.550;8.786;2022-08-21T01:59:39;11.70;;;2.30;;
49416;SDS011;35290;39.550;8.786;2022-08-21T02:02:05;9.23;;;1.77;;
49416;SDS011;35290;39.550;8.786;2022-08-21T02:04:31;11.02;;;2.00;;
49416;SDS011;35290;39.550;8.786;2022-08-21T02:06:57;15.63;;;2.50;;
49416;SDS011;35290;39.550;8.786;2022-08-21T02:09:24;13.32;;;2.20;;
49416;SDS011;35290;39.550;8.786;2022-08-21T02:11:50;8.60;;;2.47;;
49416;SDS011;35290;39.550;8.786;2022-08-21T02:14:16;9.70;;;1.98;;
49416;SDS011;35290;39.550;8.786;2022-08-21T02:16:43;8.57;;;1.85;;
49416;SDS011;35290;39.550;8.786;2022-08-21T02:19:10;12.63;;;1.88;;
49416;SDS011;35290;39.550;8.786;2022-08-21T02:21:37;13.07;;;2.55;;
49416;SDS011;35290;39.550;8.786;2022-08-21T02:24:03;11.15;;;2.13;;
49416;SDS011;35290;39.550;8.786;2022-08-21T02:26:29;11.90;;;2.50;;
49416;SDS011;35290;39.550;8.786;2022-08-21T02:28:54;16.90;;;3.20;;
49416;SDS011;35290;39.550;8.786;2022-08-21T02:31:20;10.27;;;2.00;;
49416;SDS011;35290;39.550;8.786;2022-08-21T02:33:45;7.38;;;1.90;;
49416;SDS011;35290;39.550;8.786;2022-08-21T02:36:11;13.45;;;2.15;;
49416;SDS011;35290;39.550;8.786;2022-08-21T02:38:38;12.57;;;2.25;;
49416;SDS011;35290;39.550;8.786;2022-08-21T02:41:05;12.75;;;2.22;;
49416;SDS011;35290;39.550;8.786;2022-08-21T02:43:37;10.55;;;1.92;;
49416;SDS011;35290;39.550;8.786;2022-08-21T02:46:06;10.93;;;2.00;;
49416;SDS011;35290;39.550;8.786;2022-08-21T02:48:33;9.30;;;1.92;;
49416;SDS011;35290;39.550;8.786;2022-08-21T02:51:00;13.98;;;2.00;;
49416;SDS011;35290;39.550;8.786;2022-08-21T02:53:28;17.10;;;2.22;;
49416;SDS011;35290;39.550;8.786;2022-08-21T02:55:55;9.20;;;1.90;;
49416;SDS011;35290;39.550;8.786;2022-08-21T02:58:23;12.57;;;2.50;;
49416;SDS011;35290;39.550;8.786;2022-08-21T03:00:51;10.77;;;2.13;;
49416;SDS011;35290;39.550;8.786;2022-08-21T03:03:16;12.63;;;1.95;;
49416;SDS011;35290;39.550;8.786;2022-08-21T03:05:43;12.00;;;2.45;;
49416;SDS011;35290;39.550;8.786;2022-08-21T03:08:09;17.08;;;2.17;;
49416;SDS011;35290;39.550;8.786;2022-08-21T03:10:41;13.55;;;2.22;;
49416;SDS011;35290;39.550;8.786;2022-08-21T03:13:08;18.35;;;2.72;;
49416;SDS011;35290;39.550;8.786;2022-08-21T03:15:35;15.48;;;2.70;;
49416;SDS011;35290;39.550;8.786;2022-08-21T03:18:01;8.98;;;2.03;;
49416;SDS011;35290;39.550;8.786;2022-08-21T03:20:27;9.00;;;2.55;;
49416;SDS011;35290;39.550;8.786;2022-08-21T03:22:53;17.58;;;2.22;;
49416;SDS011;35290;39.550;8.786;2022-08-21T03:25:20;9.00;;;2.05;;
49416;SDS011;35290;39.550;8.786;2022-08-21T03:27:47;15.13;;;2.40;;
49416;SDS011;35290;39.550;8.786;2022-08-21T03:30:14;10.68;;;2.35;;
49416;SDS011;35290;39.550;8.786;2022-08-21T03:32:42;14.35;;;2.22;;
49416;SDS011;35290;39.550;8.786;2022-08-21T03:35:08;14.18;;;2.65;;
49416;SDS011;35290;39.550;8.786;2022-08-21T03:37:34;13.52;;;2.50;;
49416;SDS011;35290;39.550;8.786;2022-08-21T03:40:00;15.80;;;2.60;;
49416;SDS011;35290;39.550;8.786;2022-08-21T03:42:27;9.55;;;2.20;;
49416;SDS011;35290;39.550;8.786;2022-08-21T03:44:53;14.25;;;2.33;;
49416;SDS011;35290;39.550;8.786;2022-08-21T03:47:18;21.90;;;2.97;;
49416;SDS011;35290;39.550;8.786;2022-08-21T03:49:44;13.48;;;2.67;;
49416;SDS011;35290;39.550;8.786;2022-08-21T03:52:09;10.63;;;2.33;;
49416;SDS011;35290;39.550;8.786;2022-08-21T03:54:35;13.98;;;2.30;;
49416;SDS011;35290;39.550;8.786;2022-08-21T03:57:02;11.73;;;2.38;;
49416;SDS011;35290;39.550;8.786;2022-08-21T03:59:28;10.73;;;2.17;;
49416;SDS011;35290;39.550;8.786;2022-08-21T04:01:57;12.13;;;2.50;;
49416;SDS011;35290;39.550;8.786;2022-08-21T04:04:24;10.80;;;2.10;;
49416;SDS011;35290;39.550;8.786;2022-08-21T04:06:50;11.77;;;2.55;;
49416;SDS011;35290;39.550;8.786;2022-08-21T04:09:16;9.90;;;2.13;;
49416;SDS011;35290;39.550;8.786;2022-08-21T04:11:42;11.68;;;2.25;;
49416;SDS011;35290;39.550;8.786;2022-08-21T04:14:08;11.57;;;2.20;;
49416;SDS011;35290;39.550;8.786;2022-08-21T04:16:34;15.85;;;2.40;;
49416;SDS011;35290;39.550;8.786;2022-08-21T04:19:00;14.93;;;2.75;;
49416;SDS011;35290;39.550;8.786;2022-08-21T04:21:26;13.60;;;2.35;;
49416;SDS011;35290;39.550;8.786;2022-08-21T04:23:53;11.85;;;2.20;;
49416;SDS011;35290;39.550;8.786;2022-08-21T04:26:20;12.30;;;2.25;;
49416;SDS011;35290;39.550;8.786;2022-08-21T04:28:46;13.40;;;2.40;;
49416;SDS011;35290;39.550;8.786;2022-08-21T04:31:11;12.30;;;2.28;;
49416;SDS011;35290;39.550;8.786;2022-08-21T04:33:37;9.00;;;1.75;;
49416;SDS011;35290;39.550;8.786;2022-08-21T04:36:03;11.85;;;2.10;;
49416;SDS011;35290;39.550;8.786;2022-08-21T04:38:29;10.82;;;2.17;;
49416;SDS011;35290;39.550;8.786;2022-08-21T04:40:57;16.13;;;2.33;;
49416;SDS011;35290;39.550;8.786;2022-08-21T04:43:22;10.68;;;2.10;;
49416;SDS011;35290;39.550;8.786;2022-08-21T04:45:48;14.82;;;2.08;;
49416;SDS011;35290;39.550;8.786;2022-08-21T04:48:17;12.02;;;2.35;;
49416;SDS011;35290;39.550;8.786;2022-08-21T04:50:52;12.18;;;1.92;;
49416;SDS011;35290;39.550;8.786;2022-08-21T04:53:45;11.13;;;2.17;;
49416;SDS011;35290;39.550;8.786;2022-08-21T04:56:20;18.95;;;2.05;;
49416;SDS011;35290;39.550;8.786;2022-08-21T04:58:48;16.38;;;2.20;;
49416;SDS011;35290;39.550;8.786;2022-08-21T05:01:18;10.13;;;1.73;;
49416;SDS011;35290;39.550;8.786;2022-08-21T05:03:45;11.05;;;2.03;;
49416;SDS011;35290;39.550;8.786;2022-08-21T05:06:12;9.60;;;1.88;;
49416;SDS011;35290;39.550;8.786;2022-08-21T05:08:39;7.38;;;1.83;;
49416;SDS011;35290;39.550;8.786;2022-08-21T05:11:05;10.38;;;1.98;;
49416;SDS011;35290;39.550;8.786;2022-08-21T05:13:32;8.35;;;1.77;;
49416;SDS011;35290;39.550;8.786;2022-08-21T05:15:58;10.43;;;1.60;;
49416;SDS011;35290;39.550;8.786;2022-08-21T05:18:24;12.90;;;1.85;;
49416;SDS011;35290;39.550;8.786;2022-08-21T05:20:49;11.98;;;2.08;;
49416;SDS011;35290;39.550;8.786;2022-08-21T05:23:15;13.43;;;2.10;;
49416;SDS011;35290;39.550;8.786;2022-08-21T05:25:41;13.25;;;1.80;;
49416;SDS011;35290;39.550;8.786;2022-08-21T05:28:08;12.95;;;2.13;;
49416;SDS011;35290;39.550;8.786;2022-08-21T05:30:35;11.45;;;1.90;;
49416;SDS011;35290;39.550;8.786;2022-08-21T05:33:02;15.70;;;2.45;;
49416;SDS011;35290;39.550;8.786;2022-08-21T05:35:29;11.02;;;1.98;;
49416;SDS011;35290;39.550;8.786;2022-08-21T05:37:55;13.25;;;1.90;;
49416;SDS011;35290;39.550;8.786;2022-08-21T05:40:22;12.88;;;2.05;;
49416;SDS011;35290;39.550;8.786;2022-08-21T05:42:48;12.57;;;1.85;;
49416;SDS011;35290;39.550;8.786;2022-08-21T05:45:14;12.40;;;1.90;;
49416;SDS011;35290;39.550;8.786;2022-08-21T05:47:40;10.52;;;1.77;;
49416;SDS011;35290;39.550;8.786;2022-08-21T05:50:05;14.90;;;2.42;;
49416;SDS011;35290;39.550;8.786;2022-08-21T05:52:31;14.18;;;1.83;;
49416;SDS011;35290;39.550;8.786;2022-08-21T05:54:57;10.82;;;1.80;;
49416;SDS011;35290;39.550;8.786;2022-08-21T05:57:22;9.18;;;1.67;;
49416;SDS011;35290;39.550;8.786;2022-08-21T05:59:48;13.50;;;1.70;;
49416;SDS011;35290;39.550;8.786;2022-08-21T06:02:16;6.20;;;1.50;;
49416;SDS011;35290;39.550;8.786;2022-08-21T06:04:45;7.88;;;1.73;;
49416;SDS011;35290;39.550;8.786;2022-08-21T06:07:11;7.85;;;1.60;;
49416;SDS011;35290;39.550;8.786;2022-08-21T06:09:37;7.50;;;1.85;;
49416;SDS011;35290;39.550;8.786;2022-08-21T06:12:06;9.75;;;1.55;;
49416;SDS011;35290;39.550;8.786;2022-08-21T06:14:33;7.47;;;1.30;;
49416;SDS011;35290;39.550;8.786;2022-08-21T06:17:06;10.35;;;1.50;;
49416;SDS011;35290;39.550;8.786;2022-08-21T06:19:33;10.38;;;1.85;;
49416;SDS011;35290;39.550;8.786;2022-08-21T06:21:59;8.35;;;1.50;;
49416;SDS011;35290;39.550;8.786;2022-08-21T06:24:24;8.80;;;1.70;;
49416;SDS011;35290;39.550;8.786;2022-08-21T06:26:50;12.00;;;1.85;;
49416;SDS011;35290;39.550;8.786;2022-08-21T06:29:16;10.13;;;1.77;;
49416;SDS011;35290;39.550;8.786;2022-08-21T06:31:42;10.93;;;1.98;;
49416;SDS011;35290;39.550;8.786;2022-08-21T06:34:09;7.85;;;1.70;;
49416;SDS011;35290;39.550;8.786;2022-08-21T06:36:35;6.63;;;1.50;;
49416;SDS011;35290;39.550;8.786;2022-08-21T06:39:00;14.00;;;1.95;;
49416;SDS011;35290;39.550;8.786;2022-08-21T06:41:26;10.90;;;2.50;;
49416;SDS011;35290;39.550;8.786;2022-08-21T06:43:52;8.98;;;2.40;;
49416;SDS011;35290;39.550;8.786;2022-08-21T06:46:19;8.77;;;1.90;;
49416;SDS011;35290;39.550;8.786;2022-08-21T06:48:44;13.57;;;2.03;;
49416;SDS011;35290;39.550;8.786;2022-08-21T06:51:10;12.82;;;2.08;;
49416;SDS011;35290;39.550;8.786;2022-08-21T06:53:36;11.60;;;1.92;;
49416;SDS011;35290;39.550;8.786;2022-08-21T06:56:01;9.73;;;1.77;;
49416;SDS011;35290;39.550;8.786;2022-08-21T06:58:27;13.77;;;2.80;;
49416;SDS011;35290;39.550;8.786;2022-08-21T07:00:54;10.82;;;1.80;;
49416;SDS011;35290;39.550;8.786;2022-08-21T07:03:24;14.00;;;2.28;;
49416;SDS011;35290;39.550;8.786;2022-08-21T07:05:52;12.40;;;1.95;;
49416;SDS011;35290;39.550;8.786;2022-08-21T07:08:18;12.02;;;1.80;;
49416;SDS011;35290;39.550;8.786;2022-08-21T07:10:44;8.75;;;2.00;;
49416;SDS011;35290;39.550;8.786;2022-08-21T07:13:11;10.43;;;1.88;;
49416;SDS011;35290;39.550;8.786;2022-08-21T07:15:36;12.32;;;2.05;;
49416;SDS011;35290;39.550;8.786;2022-08-21T07:18:02;9.93;;;2.50;;
49416;SDS011;35290;39.550;8.786;2022-08-21T07:20:28;11.50;;;2.78;;
49416;SDS011;35290;39.550;8.786;2022-08-21T07:22:55;8.20;;;2.03;;
49416;SDS011;35290;39.550;8.786;2022-08-21T07:25:21;10.98;;;1.85;;
49416;SDS011;35290;39.550;8.786;2022-08-21T07:27:47;8.63;;;1.55;;
49416;SDS011;35290;39.550;8.786;2022-08-21T07:30:12;9.95;;;2.10;;
49416;SDS011;35290;39.550;8.786;2022-08-21T07:32:38;9.60;;;2.15;;
49416;SDS011;35290;39.550;8.786;2022-08-21T07:35:05;13.02;;;2.00;;
49416;SDS011;35290;39.550;8.786;2022-08-21T07:37:30;9.65;;;2.13;;
49416;SDS011;35290;39.550;8.786;2022-08-21T07:39:56;14.45;;;2.55;;
49416;SDS011;35290;39.550;8.786;2022-08-21T07:42:21;8.68;;;1.85;;
49416;SDS011;35290;39.550;8.786;2022-08-21T07:44:47;10.55;;;2.08;;
49416;SDS011;35290;39.550;8.786;2022-08-21T07:47:12;9.65;;;1.67;;
49416;SDS011;35290;39.550;8.786;2022-08-21T07:49:38;8.98;;;1.80;;
49416;SDS011;35290;39.550;8.786;2022-08-21T07:52:04;12.45;;;2.03;;
49416;SDS011;35290;39.550;8.786;2022-08-21T07:54:30;6.68;;;1.75;;
49416;SDS011;35290;39.550;8.786;2022-08-21T07:56:56;13.18;;;2.33;;
49416;SDS011;35290;39.550;8.786;2022-08-21T07:59:21;9.45;;;1.60;;
49416;SDS011;35290;39.550;8.786;2022-08-21T08:01:47;9.90;;;1.95;;
49416;SDS011;35290;39.550;8.786;2022-08-21T08:04:12;9.05;;;1.77;;
49416;SDS011;35290;39.550;8.786;2022-08-21T08:06:40;8.25;;;1.70;;
49416;SDS011;35290;39.550;8.786;2022-08-21T08:09:06;7.95;;;1.80;;
49416;SDS011;35290;39.550;8.786;2022-08-21T08:11:31;5.72;;;1.40;;
49416;SDS011;35290;39.550;8.786;2022-08-21T08:13:57;11.82;;;2.00;;
49416;SDS011;35290;39.550;8.786;2022-08-21T08:16:24;8.50;;;2.03;;
49416;SDS011;35290;39.550;8.786;2022-08-21T08:18:50;9.43;;;1.80;;
49416;SDS011;35290;39.550;8.786;2022-08-21T08:21:16;10.65;;;1.75;;
49416;SDS011;35290;39.550;8.786;2022-08-21T08:23:45;9.25;;;1.75;;
49416;SDS011;35290;39.550;8.786;2022-08-21T08:26:11;7.07;;;1.67;;
49416;SDS011;35290;39.550;8.786;2022-08-21T08:28:36;7.63;;;1.80;;
49416;SDS011;35290;39.550;8.786;2022-08-21T08:31:02;8.57;;;1.55;;
49416;SDS011;35290;39.550;8.786;2022-08-21T08:33:28;8.02;;;1.65;;
49416;SDS011;35290;39.550;8.786;2022-08-21T08:35:54;11.18;;;1.70;;
49416;SDS011;35290;39.550;8.786;2022-08-21T08:38:21;6.93;;;2.00;;
49416;SDS011;35290;39.550;8.786;2022-08-21T08:43:42;6.53;;;1.42;;
49416;SDS011;35290;39.550;8.786;2022-08-21T08:46:14;7.20;;;1.40;;
49416;SDS011;35290;39.550;8.786;2022-08-21T08:51:40;9.35;;;1.63;;
49416;SDS011;35290;39.550;8.786;2022-08-21T08:54:09;7.38;;;1.42;;
49416;SDS011;35290;39.550;8.786;2022-08-21T08:56:38;6.60;;;1.60;;
49416;SDS011;35290;39.550;8.786;2022-08-21T08:59:13;5.80;;;1.60;;
49416;SDS011;35290;39.550;8.786;2022-08-21T09:01:41;7.82;;;1.50;;
49416;SDS011;35290;39.550;8.786;2022-08-21T09:04:08;5.90;;;1.40;;
49416;SDS011;35290;39.550;8.786;2022-08-21T09:06:42;7.00;;;1.50;;
49416;SDS011;35290;39.550;8.786;2022-08-21T09:09:25;5.97;;;1.25;;
49416;SDS011;35290;39.550;8.786;2022-08-21T09:12:00;6.43;;;1.30;;
49416;SDS011;35290;39.550;8.786;2022-08-21T09:20:03;8.10;;;1.50;;
49416;SDS011;35290;39.550;8.786;2022-08-21T09:22:44;9.90;;;1.88;;
49416;SDS011;35290;39.550;8.786;2022-08-21T09:27:56;9.40;;;1.60;;
49416;SDS011;35290;39.550;8.786;2022-08-21T09:30:27;7.72;;;1.63;;
49416;SDS011;35290;39.550;8.786;2022-08-21T09:32:55;8.02;;;2.30;;
49416;SDS011;35290;39.550;8.786;2022-08-21T09:35:22;5.40;;;1.60;;
49416;SDS011;35290;39.550;8.786;2022-08-21T09:42:54;5.18;;;1.48;;
49416;SDS011;35290;39.550;8.786;2022-08-21T09:45:21;7.47;;;1.65;;
49416;SDS011;35290;39.550;8.786;2022-08-21T09:47:47;4.78;;;1.65;;
49416;SDS011;35290;39.550;8.786;2022-08-21T09:50:17;3.58;;;1.10;;
49416;SDS011;35290;39.550;8.786;2022-08-21T09:52:49;6.22;;;1.33;;
49416;SDS011;35290;39.550;8.786;2022-08-21T09:55:38;6.68;;;1.60;;
49416;SDS011;35290;39.550;8.786;2022-08-21T09:58:32;4.90;;;1.52;;
49416;SDS011;35290;39.550;8.786;2022-08-21T10:01:02;7.55;;;1.80;;
49416;SDS011;35290;39.550;8.786;2022-08-21T10:03:29;7.25;;;1.77;;
49416;SDS011;35290;39.550;8.786;2022-08-21T10:05:59;6.47;;;1.63;;
49416;SDS011;35290;39.550;8.786;2022-08-21T10:08:30;10.23;;;1.60;;
49416;SDS011;35290;39.550;8.786;2022-08-21T10:11:01;8.45;;;1.50;;
49416;SDS011;35290;39.550;8.786;2022-08-21T10:19:06;7.63;;;1.40;;
49416;SDS011;35290;39.550;8.786;2022-08-21T10:24:39;10.85;;;1.70;;
49416;SDS011;35290;39.550;8.786;2022-08-21T10:30:19;7.07;;;1.90;;
49416;SDS011;35290;39.550;8.786;2022-08-21T10:35:26;4.80;;;1.48;;
49416;SDS011;35290;39.550;8.786;2022-08-21T10:41:01;6.68;;;1.60;;
49416;SDS011;35290;39.550;8.786;2022-08-21T10:49:17;4.00;;;1.10;;
49416;SDS011;35290;39.550;8.786;2022-08-21T10:55:13;8.52;;;1.45;;
49416;SDS011;35290;39.550;8.786;2022-08-21T10:57:58;7.55;;;1.60;;
49416;SDS011;35290;39.550;8.786;2022-08-21T11:00:35;6.40;;;1.50;;
49416;SDS011;35290;39.550;8.786;2022-08-21T11:06:24;4.90;;;1.20;;
49416;SDS011;35290;39.550;8.786;2022-08-21T11:08:53;7.25;;;1.48;;
49416;SDS011;35290;39.550;8.786;2022-08-21T11:11:26;8.35;;;1.20;;
49416;SDS011;35290;39.550;8.786;2022-08-21T11:14:44;5.65;;;1.20;;
49416;SDS011;35290;39.550;8.786;2022-08-21T11:16:56;3.58;;;0.90;;
49416;SDS011;35290;39.550;8.786;2022-08-21T11:24:50;5.80;;;1.27;;
49416;SDS011;35290;39.550;8.786;2022-08-21T11:27:23;5.72;;;1.20;;
49416;SDS011;35290;39.550;8.786;2022-08-21T11:29:55;2.83;;;1.00;;
49416;SDS011;35290;39.550;8.786;2022-08-21T11:38:54;7.07;;;1.98;;
49416;SDS011;35290;39.550;8.786;2022-08-21T11:41:24;6.68;;;1.00;;
49416;SDS011;35290;39.550;8.786;2022-08-21T11:44:29;7.32;;;1.20;;
49416;SDS011;35290;39.550;8.786;2022-08-21T11:47:07;4.10;;;1.08;;
49416;SDS011;35290;39.550;8.786;2022-08-21T11:52:38;6.28;;;1.00;;
49416;SDS011;35290;39.550;8.786;2022-08-21T11:57:51;7.35;;;1.10;;
49416;SDS011;35290;39.550;8.786;2022-08-21T12:00:28;4.20;;;1.00;;
49416;SDS011;35290;39.550;8.786;2022-08-21T12:03:06;5.03;;;1.30;;
49416;SDS011;35290;39.550;8.786;2022-08-21T12:05:36;4.00;;;1.20;;
49416;SDS011;35290;39.550;8.786;2022-08-21T12:10:33;3.10;;;0.95;;
49416;SDS011;35290;39.550;8.786;2022-08-21T12:13:52;7.47;;;1.10;;
49416;SDS011;35290;39.550;8.786;2022-08-21T12:17:03;8.90;;;1.73;;
49416;SDS011;35290;39.550;8.786;2022-08-21T12:19:11;6.55;;;1.33;;
49416;SDS011;35290;39.550;8.786;2022-08-21T12:21:51;3.08;;;1.00;;
49416;SDS011;35290;39.550;8.786;2022-08-21T12:24:18;5.00;;;1.25;;
49416;SDS011;35290;39.550;8.786;2022-08-21T12:27:19;4.57;;;1.02;;
49416;SDS011;35290;39.550;8.786;2022-08-21T12:30:00;2.88;;;0.70;;
49416;SDS011;35290;39.550;8.786;2022-08-21T12:32:29;4.93;;;1.00;;
49416;SDS011;35290;39.550;8.786;2022-08-21T12:35:20;4.57;;;1.05;;
49416;SDS011;35290;39.550;8.786;2022-08-21T12:37:50;4.65;;;0.82;;
49416;SDS011;35290;39.550;8.786;2022-08-21T12:40:30;4.47;;;1.08;;
49416;SDS011;35290;39.550;8.786;2022-08-21T12:42:58;3.50;;;0.98;;
49416;SDS011;35290;39.550;8.786;2022-08-21T12:45:36;5.07;;;1.33;;
49416;SDS011;35290;39.550;8.786;2022-08-21T12:48:14;2.80;;;0.77;;
49416;SDS011;35290;39.550;8.786;2022-08-21T12:50:49;5.53;;;1.40;;
49416;SDS011;35290;39.550;8.786;2022-08-21T12:56:07;3.20;;;0.73;;
49416;SDS011;35290;39.550;8.786;2022-08-21T12:58:34;4.57;;;0.70;;
49416;SDS011;35290;39.550;8.786;2022-08-21T13:01:08;5.30;;;0.90;;
49416;SDS011;35290;39.550;8.786;2022-08-21T13:04:02;2.92;;;0.82;;
49416;SDS011;35290;39.550;8.786;2022-08-21T13:06:36;2.10;;;0.63;;
49416;SDS011;35290;39.550;8.786;2022-08-21T13:09:04;3.00;;;0.50;;
49416;SDS011;35290;39.550;8.786;2022-08-21T13:11:32;2.45;;;0.50;;
49416;SDS011;35290;39.550;8.786;2022-08-21T13:13:58;6.18;;;0.57;;
49416;SDS011;35290;39.550;8.786;2022-08-21T13:16:26;2.08;;;0.60;;
49416;SDS011;35290;39.550;8.786;2022-08-21T13:19:03;1.75;;;0.60;;
49416;SDS011;35290;39.550;8.786;2022-08-21T13:21:42;2.28;;;0.68;;
49416;SDS011;35290;39.550;8.786;2022-08-21T13:24:16;4.15;;;0.60;;
49416;SDS011;35290;39.550;8.786;2022-08-21T13:26:44;3.65;;;0.50;;
49416;SDS011;35290;39.550;8.786;2022-08-21T13:29:11;1.88;;;0.65;;
49416;SDS011;35290;39.550;8.786;2022-08-21T13:31:40;1.58;;;0.70;;
49416;SDS011;35290;39.550;8.786;2022-08-21T13:34:14;1.65;;;0.65;;
49416;SDS011;35290;39.550;8.786;2022-08-21T13:36:41;2.00;;;0.57;;
49416;SDS011;35290;39.550;8.786;2022-08-21T13:39:08;5.93;;;0.70;;
49416;SDS011;35290;39.550;8.786;2022-08-21T13:41:37;3.30;;;0.50;;
49416;SDS011;35290;39.550;8.786;2022-08-21T13:44:12;1.30;;;0.60;;
49416;SDS011;35290;39.550;8.786;2022-08-21T13:46:38;2.17;;;0.60;;
49416;SDS011;35290;39.550;8.786;2022-08-21T13:49:04;0.52;;;0.40;;
49416;SDS011;35290;39.550;8.786;2022-08-21T13:51:31;5.30;;;0.70;;
49416;SDS011;35290;39.550;8.786;2022-08-21T13:53:58;3.25;;;0.60;;
49416;SDS011;35290;39.550;8.786;2022-08-21T13:56:25;0.75;;;0.50;;
49416;SDS011;35290;39.550;8.786;2022-08-21T13:58:52;2.28;;;0.40;;
49416;SDS011;35290;39.550;8.786;2022-08-21T14:04:00;0.60;;;0.50;;
49416;SDS011;35290;39.550;8.786;2022-08-21T14:06:47;0.77;;;0.43;;
49416;SDS011;35290;39.550;8.786;2022-08-21T14:09:28;3.35;;;0.70;;
49416;SDS011;35290;39.550;8.786;2022-08-21T14:11:56;1.73;;;0.50;;
49416;SDS011;35290;39.550;8.786;2022-08-21T14:14:27;1.95;;;0.45;;
49416;SDS011;35290;39.550;8.786;2022-08-21T14:16:57;3.13;;;0.60;;
49416;SDS011;35290;39.550;8.786;2022-08-21T14:19:37;2.60;;;0.65;;
49416;SDS011;35290;39.550;8.786;2022-08-21T14:25:08;2.38;;;0.50;;
49416;SDS011;35290;39.550;8.786;2022-08-21T14:30:31;3.67;;;0.50;;
49416;SDS011;35290;39.550;8.786;2022-08-21T14:33:01;1.05;;;0.60;;
49416;SDS011;35290;39.550;8.786;2022-08-21T14:35:29;1.90;;;0.47;;
49416;SDS011;35290;39.550;8.786;2022-08-21T14:37:56;3.40;;;0.68;;
49416;SDS011;35290;39.550;8.786;2022-08-21T14:40:22;1.88;;;0.50;;
49416;SDS011;35290;39.550;8.786;2022-08-21T14:42:48;2.30;;;0.50;;
49416;SDS011;35290;39.550;8.786;2022-08-21T14:47:41;2.05;;;0.70;;
49416;SDS011;35290;39.550;8.786;2022-08-21T14:50:08;2.80;;;0.65;;
49416;SDS011;35290;39.550;8.786;2022-08-21T14:52:35;1.38;;;0.40;;
49416;SDS011;35290;39.550;8.786;2022-08-21T14:55:02;1.00;;;0.40;;
49416;SDS011;35290;39.550;8.786;2022-08-21T14:57:29;2.55;;;0.43;;
49416;SDS011;35290;39.550;8.786;2022-08-21T14:59:55;3.80;;;0.57;;
49416;SDS011;35290;39.550;8.786;2022-08-21T15:02:21;1.33;;;0.52;;
49416;SDS011;35290;39.550;8.786;2022-08-21T15:04:46;0.93;;;0.40;;
49416;SDS011;35290;39.550;8.786;2022-08-21T15:07:12;1.00;;;0.30;;
49416;SDS011;35290;39.550;8.786;2022-08-21T15:09:37;1.45;;;0.43;;
49416;SDS011;35290;39.550;8.786;2022-08-21T15:12:03;1.58;;;0.40;;
49416;SDS011;35290;39.550;8.786;2022-08-21T15:14:30;0.40;;;0.30;;
49416;SDS011;35290;39.550;8.786;2022-08-21T15:16:58;0.52;;;0.38;;
49416;SDS011;35290;39.550;8.786;2022-08-21T15:19:27;0.85;;;0.40;;
49416;SDS011;35290;39.550;8.786;2022-08-21T15:21:55;1.20;;;0.40;;
49416;SDS011;35290;39.550;8.786;2022-08-21T15:24:21;0.80;;;0.30;;
49416;SDS011;35290;39.550;8.786;2022-08-21T15:26:47;1.77;;;0.40;;
49416;SDS011;35290;39.550;8.786;2022-08-21T15:29:13;1.20;;;0.50;;
49416;SDS011;35290;39.550;8.786;2022-08-21T15:31:57;0.52;;;0.40;;
49416;SDS011;35290;39.550;8.786;2022-08-21T15:34:25;3.25;;;0.55;;
49416;SDS011;35290;39.550;8.786;2022-08-21T15:36:52;2.17;;;0.50;;
49416;SDS011;35290;39.550;8.786;2022-08-21T15:39:18;3.53;;;0.68;;
49416;SDS011;35290;39.550;8.786;2022-08-21T15:41:44;4.15;;;0.50;;
49416;SDS011;35290;39.550;8.786;2022-08-21T15:44:10;1.67;;;0.50;;
49416;SDS011;35290;39.550;8.786;2022-08-21T15:46:37;1.10;;;0.52;;
49416;SDS011;35290;39.550;8.786;2022-08-21T15:49:03;1.23;;;0.50;;
49416;SDS011;35290;39.550;8.786;2022-08-21T15:51:29;1.95;;;0.38;;
49416;SDS011;35290;39.550;8.786;2022-08-21T15:53:54;2.63;;;0.50;;
49416;SDS011;35290;39.550;8.786;2022-08-21T15:56:21;1.05;;;0.50;;
49416;SDS011;35290;39.550;8.786;2022-08-21T15:58:51;1.80;;;0.40;;
49416;SDS011;35290;39.550;8.786;2022-08-21T16:01:19;4.35;;;0.55;;
49416;SDS011;35290;39.550;8.786;2022-08-21T16:03:46;1.58;;;0.50;;
49416;SDS011;35290;39.550;8.786;2022-08-21T16:06:13;2.55;;;0.82;;
49416;SDS011;35290;39.550;8.786;2022-08-21T16:08:39;2.67;;;0.40;;
49416;SDS011;35290;39.550;8.786;2022-08-21T16:11:05;3.83;;;0.50;;
49416;SDS011;35290;39.550;8.786;2022-08-21T16:13:33;2.75;;;0.50;;
49416;SDS011;35290;39.550;8.786;2022-08-21T16:16:02;1.98;;;0.47;;